VNT1 weather

Thalchi Airport
Rara National Park, Karnali, Nepal

Public forecast

Using degrees Celsius for public forecast. Weather courtesy of forecast.io.

METAR (pilot weather report)

Report is more than 2 hours old.

Closest report is Pantnagar Airport, 143.0 nm (264.9 km) W. Retrieved 2019/09/15 09:00 UTC (4 hours ago):

VIPT 150900Z 09004KT 4000 HZ FEW020 FEW030CB BKN100 31/25 Q1005

TAF (pilot weather forecast)

Forecast is more than 12 hours old.

Closest forecast is Pantnagar Airport, 143.0 nm (264.9 km) W. Retrieved 2016/07/10 06:00 UTC (3 years ago):

TAF VIPT 100500Z 1006/1015 24005KT 4000 HZ FEW040 SCT100 TEMPO 1010/1015 2000 -TSRA SCT030 FEW035CB BKN090